Terminal Aerodrome Forecast
Issued by NWS Tulsa, OK

Home | Current Version | Previous Version | Text Only | Print | Product List | Glossary On
Versions: 1 2 3 4 5 6 7 8 9 10 11 12 13 14 15 16 17 18 19 20 21
000
FTUS44 KTSA 281700 RRA
TAFTUL
TAF
KTUL 281740Z 2818/0118 12006KT 1 1/2SM -SN BR BKN015
      TEMPO 2818/2822 3/4SM -SN BR OVC011
     FM282300 13006KT 3SM -SN BR OVC015
     FM010200 VRB05KT 4SM -SNPL BR OVC010
      TEMPO 0108/0112 1SM -FZDZ BR OVC004
     FM011200 02003KT 2SM -FZDZ BR OVC008=

USA.gov is the U.S. government's official web portal to all federal, state and local government web resources and services.